»·PEaware :: N44GB KOTH-KSMO

N44GB :: KOTH-KSMO

FLIGHT INFORMATION

Flight Status: Arrived
Operator: Privately registered:
United States
More flights under this callsign
Pilot: Eric W. (14379)
Aircraft: Unknown
(EPIC)
More flights by this aircraft type
Origin: KOTH North Bend Mun
United States
Destination: KSMO Santa Monica Mun
United States
More flights between these airports :: More routes between these airports
Route: OTH6 LEDGE RBL J126 SAC REBRG BONJO1
File this flight plan on PilotEdge
Remarks: PBN / D1 NAV / RNVD1E2A1 DAT / V DOF / 170422 REG / N44GB EET / KZOA0034 KZLA0157 RMK / NRP SIMBRIEF
Altitude:
(Current/Filed)
25,000ft
Speed:
(Current/Filed)
273kts
Departed: 21-Apr-17 04:14 PM
Arrived: 21-Apr-17 06:42 PM
Distance/Time
Traveled:
625nm/2:28
Distance/Time
To Go:
Arrived

Flight Plot

Page will automatically refresh every two minutes.

Flight plan parsing failed; only flown route is shown


Map Options




Map Legend


Flown Route
Filed Route
Departure Airport
Arrival Airport
Navaid (VOR, NDB)
Fix

Horizontal Profiles

Position Reports

Time Latitude Longitude Heading Altitude Ground
Speed
21-Apr-17 15:56 43.416716 -124.246563 330 26ft 0kts
21-Apr-17 15:57 43.416716 -124.246563 330 26ft 0kts
21-Apr-17 15:58 43.416716 -124.246563 330 26ft 0kts
21-Apr-17 15:59 43.416716 -124.246563 330 26ft 0kts
21-Apr-17 16:00 43.416716 -124.246563 330 26ft 0kts
21-Apr-17 16:01 43.416716 -124.246563 330 26ft 0kts
21-Apr-17 16:02 43.416716 -124.246563 330 26ft 0kts
21-Apr-17 16:03 43.416716 -124.246563 330 26ft 0kts
21-Apr-17 16:04 43.416716 -124.246563 330 26ft 0kts
21-Apr-17 16:05 43.416716 -124.246563 330 26ft 0kts
21-Apr-17 16:06 43.416717 -124.246563 330 26ft 0kts
21-Apr-17 16:07 43.416717 -124.246563 330 26ft 0kts
21-Apr-17 16:08 43.416717 -124.246563 330 26ft 0kts
21-Apr-17 16:09 43.416717 -124.246563 330 26ft 0kts
21-Apr-17 16:10 43.416133 -124.244728 151 20ft 19kts
21-Apr-17 16:11 43.412247 -124.241604 148 17ft 19kts
21-Apr-17 16:12 43.409245 -124.239174 148 13ft 9kts
21-Apr-17 16:13 43.408944 -124.238770 95 12ft 0kts
21-Apr-17 16:14 43.409525 -124.237952 325 10ft 5kts
21-Apr-17 16:15 43.420435 -124.256677 255 804ft 137kts
21-Apr-17 16:16 43.428233 -124.309529 341 2654ft 206kts
21-Apr-17 16:17 43.492767 -124.326308 21 3442ft 256kts
21-Apr-17 16:18 43.491677 -124.259153 144 6220ft 225kts
21-Apr-17 16:19 43.447301 -124.214618 143 8989ft 201kts
21-Apr-17 16:20 43.407176 -124.170364 140 11588ft 191kts
21-Apr-17 16:21 43.362928 -124.143576 210 13643ft 183kts
21-Apr-17 16:22 43.313484 -124.161828 196 15410ft 208kts
21-Apr-17 16:23 43.253040 -124.170304 193 17473ft 192kts
21-Apr-17 16:24 43.200272 -124.174944 193 19155ft 198kts
21-Apr-17 16:25 43.145237 -124.179035 193 20708ft 201kts
21-Apr-17 16:26 43.089081 -124.182974 192 22103ft 206kts
21-Apr-17 16:27 43.032625 -124.149614 163 23321ft 232kts
21-Apr-17 16:28 42.974905 -124.110197 163 24493ft 235kts
21-Apr-17 16:29 42.915130 -124.069375 162 25106ft 259kts
21-Apr-17 16:30 42.849118 -124.024274 161 25105ft 291kts
21-Apr-17 16:31 42.776675 -123.974848 161 25108ft 307kts
21-Apr-17 16:32 42.700586 -123.923086 161 25130ft 316kts
21-Apr-17 16:33 42.622259 -123.869928 161 25135ft 320kts
21-Apr-17 16:34 42.543720 -123.816862 160 25131ft 323kts
21-Apr-17 16:35 42.463923 -123.763053 160 25131ft 324kts
21-Apr-17 16:36 42.384339 -123.709543 160 25132ft 325kts
21-Apr-17 16:38 42.304556 -123.656057 160 25132ft 325kts
21-Apr-17 16:39 42.224472 -123.602522 160 25132ft 325kts
21-Apr-17 16:40 42.144127 -123.548962 160 25133ft 326kts
21-Apr-17 16:41 42.063213 -123.495190 160 25133ft 325kts
21-Apr-17 16:42 41.983343 -123.442246 160 25123ft 326kts
21-Apr-17 16:43 41.903294 -123.389335 160 25081ft 327kts
21-Apr-17 16:44 41.832946 -123.342964 161 25074ft 326kts
21-Apr-17 16:45 41.754130 -123.291142 161 25113ft 323kts
21-Apr-17 16:46 41.675167 -123.239373 161 25127ft 323kts
21-Apr-17 16:47 41.595579 -123.187336 161 25127ft 323kts
21-Apr-17 16:48 41.515816 -123.135311 162 25127ft 322kts
21-Apr-17 16:49 41.436843 -123.083979 162 25128ft 323kts
21-Apr-17 16:50 41.358022 -123.032865 161 25091ft 324kts
21-Apr-17 16:51 41.280565 -122.982772 162 25097ft 324kts
21-Apr-17 16:52 41.201236 -122.931606 162 25129ft 323kts
21-Apr-17 16:53 41.122074 -122.880682 162 25078ft 324kts
21-Apr-17 16:54 41.042065 -122.829350 162 25076ft 324kts
21-Apr-17 16:55 40.961908 -122.778058 162 25080ft 323kts
21-Apr-17 16:56 40.887582 -122.730642 162 25078ft 323kts
21-Apr-17 16:57 40.808524 -122.680328 162 25078ft 323kts
21-Apr-17 16:58 40.728823 -122.629735 162 25079ft 323kts
21-Apr-17 16:59 40.650307 -122.580032 162 25079ft 324kts
21-Apr-17 17:00 40.572490 -122.530898 162 25058ft 324kts
21-Apr-17 17:01 40.493625 -122.481228 162 25026ft 325kts
21-Apr-17 17:02 40.414741 -122.431678 162 25026ft 324kts
21-Apr-17 17:03 40.337255 -122.383121 162 25010ft 324kts
21-Apr-17 17:04 40.259757 -122.334709 162 24991ft 323kts
21-Apr-17 17:05 40.181173 -122.285724 162 25000ft 321kts
21-Apr-17 17:06 40.102047 -122.236539 162 25018ft 320kts
21-Apr-17 17:07 40.021009 -122.203149 171 25018ft 314kts
21-Apr-17 17:08 39.940458 -122.169399 170 25019ft 314kts
21-Apr-17 17:09 39.887898 -122.147237 170 25020ft 314kts
21-Apr-17 17:10 39.814392 -122.116266 170 25020ft 314kts
21-Apr-17 17:11 39.735902 -122.083264 170 25019ft 313kts
21-Apr-17 17:12 39.657935 -122.050564 170 25021ft 313kts
21-Apr-17 17:13 39.578472 -122.017312 170 25021ft 314kts
21-Apr-17 17:14 39.499298 -121.984263 170 25021ft 314kts
21-Apr-17 17:15 39.420113 -121.951287 170 25021ft 313kts
21-Apr-17 17:16 39.343123 -121.919302 170 25021ft 313kts
21-Apr-17 17:17 39.264304 -121.886634 170 25022ft 313kts
21-Apr-17 17:18 39.186530 -121.854474 170 25022ft 313kts
21-Apr-17 17:19 39.106393 -121.821417 170 25022ft 313kts
21-Apr-17 17:20 39.026242 -121.788427 170 25022ft 313kts
21-Apr-17 17:21 38.950681 -121.757403 170 25022ft 313kts
21-Apr-17 17:22 38.883069 -121.729693 170 25024ft 313kts
21-Apr-17 17:23 38.817531 -121.702899 170 25024ft 313kts
21-Apr-17 17:24 38.741063 -121.671702 170 25024ft 313kts
21-Apr-17 17:25 38.666311 -121.641266 170 25025ft 313kts
21-Apr-17 17:26 38.596248 -121.612802 170 25025ft 313kts
21-Apr-17 17:27 38.529428 -121.585703 170 25042ft 312kts
21-Apr-17 17:28 38.464677 -121.559503 170 25051ft 312kts
21-Apr-17 17:29 38.399384 -121.515284 155 25027ft 325kts
21-Apr-17 17:30 38.334276 -121.462500 154 25026ft 325kts
21-Apr-17 17:31 38.265348 -121.406363 154 25026ft 325kts
21-Apr-17 17:32 38.197235 -121.350967 154 25026ft 325kts
21-Apr-17 17:33 38.133392 -121.299149 155 25017ft 324kts
21-Apr-17 17:34 38.063831 -121.242817 155 25017ft 323kts
21-Apr-17 17:35 37.999249 -121.190626 155 25023ft 322kts
21-Apr-17 17:36 37.933843 -121.137893 155 25019ft 322kts
21-Apr-17 17:37 37.873331 -121.089200 155 25021ft 322kts
21-Apr-17 17:38 37.811491 -121.039544 155 25021ft 322kts
21-Apr-17 17:39 37.749820 -120.990113 155 25022ft 322kts
21-Apr-17 17:40 37.688016 -120.940680 155 25022ft 322kts
21-Apr-17 17:41 37.623836 -120.889450 155 25022ft 323kts
21-Apr-17 17:42 37.559614 -120.838294 155 25023ft 323kts
21-Apr-17 17:43 37.494981 -120.786916 155 25030ft 323kts
21-Apr-17 17:44 37.428764 -120.734390 155 25049ft 323kts
21-Apr-17 17:45 37.360102 -120.680041 155 25051ft 323kts
21-Apr-17 17:46 37.290463 -120.625041 155 25051ft 323kts
21-Apr-17 17:47 37.221511 -120.570707 155 25051ft 323kts
21-Apr-17 17:48 37.151796 -120.515885 155 25029ft 324kts
21-Apr-17 17:49 37.080503 -120.459957 155 25025ft 324kts
21-Apr-17 17:50 37.010170 -120.404884 155 25025ft 324kts
21-Apr-17 17:51 36.939527 -120.349715 156 25051ft 323kts
21-Apr-17 17:52 36.879002 -120.302541 156 25045ft 322kts
21-Apr-17 17:53 36.808313 -120.247557 156 25046ft 322kts
21-Apr-17 17:54 36.737550 -120.192637 156 25044ft 322kts
21-Apr-17 17:55 36.666464 -120.137584 156 25021ft 323kts
21-Apr-17 17:56 36.594252 -120.081784 156 25020ft 323kts
21-Apr-17 17:57 36.522919 -120.026785 156 25021ft 323kts
21-Apr-17 17:58 36.450167 -119.970822 156 25021ft 323kts
21-Apr-17 17:59 36.378160 -119.915544 156 25033ft 323kts
21-Apr-17 18:00 36.305454 -119.859855 156 25049ft 323kts
21-Apr-17 18:01 36.232317 -119.803969 156 25049ft 323kts
21-Apr-17 18:02 36.158734 -119.747854 156 25024ft 324kts
21-Apr-17 18:03 36.084464 -119.691341 156 25023ft 325kts
21-Apr-17 18:04 36.009987 -119.634802 156 25024ft 325kts
21-Apr-17 18:05 35.934921 -119.624260 197 25024ft 292kts
21-Apr-17 18:06 35.872494 -119.636873 197 25025ft 292kts
21-Apr-17 18:07 35.797888 -119.652042 197 25025ft 292kts
21-Apr-17 18:08 35.723859 -119.667099 197 25025ft 292kts
21-Apr-17 18:09 35.652801 -119.679507 183 25023ft 303kts
21-Apr-17 18:10 35.579156 -119.669461 181 25024ft 305kts
21-Apr-17 18:11 35.503930 -119.659011 181 25024ft 305kts
21-Apr-17 18:12 35.428925 -119.641370 175 25024ft 310kts
21-Apr-17 18:13 35.350727 -119.618608 174 25024ft 310kts
21-Apr-17 18:14 35.268790 -119.594742 174 25025ft 311kts
21-Apr-17 18:15 35.191365 -119.552073 147 24293ft 339kts
21-Apr-17 18:16 35.123078 -119.486457 149 23068ft 319kts
21-Apr-17 18:17 35.054459 -119.421843 148 22038ft 316kts
21-Apr-17 18:18 34.988997 -119.360413 149 22039ft 306kts
21-Apr-17 18:19 34.921451 -119.315514 159 20206ft 299kts
21-Apr-17 18:20 34.858020 -119.274642 157 18090ft 302kts
21-Apr-17 18:21 34.785412 -119.226822 156 16642ft 321kts
21-Apr-17 18:22 34.711738 -119.178268 155 15464ft 311kts
21-Apr-17 18:23 34.640532 -119.131693 155 15128ft 296kts
21-Apr-17 18:24 34.569287 -119.085503 155 14619ft 303kts
21-Apr-17 18:25 34.500787 -119.029770 143 11378ft 307kts
21-Apr-17 18:26 34.443183 -118.976714 142 10178ft 251kts
21-Apr-17 18:27 34.396340 -118.932316 138 8513ft 250kts
21-Apr-17 18:28 34.356293 -118.867898 126 6089ft 264kts
21-Apr-17 18:29 34.319167 -118.806459 125 6044ft 256kts
21-Apr-17 18:30 34.283384 -118.747299 125 6006ft 257kts
21-Apr-17 18:31 34.249987 -118.692167 125 6004ft 252kts
21-Apr-17 18:32 34.229231 -118.636535 95 5614ft 241kts
21-Apr-17 18:33 34.216815 -118.588184 111 4940ft 216kts
21-Apr-17 18:34 34.203394 -118.548624 111 4212ft 212kts
21-Apr-17 18:35 34.189901 -118.508601 111 3442ft 217kts
21-Apr-17 18:36 34.172878 -118.468087 136 3016ft 210kts
21-Apr-17 18:37 34.148975 -118.439367 134 3031ft 175kts
21-Apr-17 18:38 34.129709 -118.414843 133 2781ft 167kts
21-Apr-17 18:39 34.106642 -118.399649 164 2458ft 160kts
21-Apr-17 18:40 34.080541 -118.393554 177 2201ft 160kts
21-Apr-17 18:41 34.056933 -118.402048 222 1514ft 135kts
21-Apr-17 18:42 34.040183 -118.422276 222 756ft 126kts
21-Apr-17 18:43 34.023059 -118.442612 222 283ft 120kts
21-Apr-17 18:44 34.013286 -118.454376 273 128ft 10kts
21-Apr-17 18:45 34.014111 -118.454240 44 131ft 13kts
21-Apr-17 18:46 34.016250 -118.451704 44 140ft 22kts
21-Apr-17 18:47 34.018444 -118.449322 331 153ft 7kts
21-Apr-17 18:48 34.018394 -118.449417 129 153ft 0kts
21-Apr-17 18:49 34.018394 -118.449417 129 153ft 0kts
21-Apr-17 18:50 34.018394 -118.449417 129 153ft 0kts
21-Apr-17 18:51 34.018394 -118.449417 129 153ft 0kts
21-Apr-17 18:52 34.018394 -118.449417 129 153ft 0kts

Navigation Log

Ident Type
Flight plan parsing failed, navigation log unavailable